createdAt,value
2023-03-28T00:02:19.468Z,0.00
2023-03-28T00:04:49.906Z,0.00
2023-03-28T00:07:17.773Z,0.00
2023-03-28T00:09:46.211Z,0.00
2023-03-28T00:12:13.818Z,0.00
2023-03-28T00:14:42.725Z,0.20
2023-03-28T00:17:10.340Z,0.00
2023-03-28T00:19:40.832Z,0.00
2023-03-28T00:22:09.120Z,0.00
2023-03-28T00:24:41.004Z,0.00
2023-03-28T00:27:08.583Z,0.00
2023-03-28T00:29:36.414Z,0.00
2023-03-28T00:32:06.161Z,0.00
2023-03-28T00:34:34.141Z,0.00
2023-03-28T00:37:02.634Z,0.00
2023-03-28T00:39:31.603Z,0.80
2023-03-28T00:41:59.148Z,0.00
2023-03-28T00:44:26.729Z,0.40
2023-03-28T00:46:54.688Z,0.00
2023-03-28T00:49:22.451Z,0.80
2023-03-28T00:51:50.319Z,0.00
2023-03-28T00:54:18.917Z,0.00
2023-03-28T00:56:47.456Z,0.40
2023-03-28T00:59:15.536Z,0.00
2023-03-28T01:01:43.217Z,0.00
2023-03-28T01:04:10.855Z,0.00
2023-03-28T01:06:38.479Z,1.00
2023-03-28T01:09:06.679Z,0.00
2023-03-28T01:11:34.621Z,0.00
2023-03-28T01:14:04.383Z,0.00
2023-03-28T01:16:32.935Z,0.80
2023-03-28T01:19:02.287Z,0.40
2023-03-28T01:21:31.464Z,0.00
2023-03-28T01:24:11.949Z,0.40
2023-03-28T01:26:40.739Z,1.00
2023-03-28T01:29:08.357Z,0.00
2023-03-28T01:31:36.387Z,0.00
2023-03-28T01:34:05.234Z,1.00
2023-03-28T01:36:33.907Z,0.00
2023-03-28T01:39:02.821Z,0.00
2023-03-28T01:41:30.401Z,0.00
2023-03-28T01:43:58.452Z,0.00
2023-03-28T01:46:26.447Z,0.00
2023-03-28T01:48:54.069Z,0.20
2023-03-28T01:51:21.628Z,1.00
2023-03-28T01:53:49.156Z,0.60
2023-03-28T01:56:18.863Z,0.00
2023-03-28T01:58:47.192Z,0.00
2023-03-28T02:01:15.756Z,0.40
2023-03-28T02:03:43.386Z,0.80
2023-03-28T02:06:10.960Z,1.00
2023-03-28T02:08:38.633Z,0.00
2023-03-28T02:11:06.611Z,0.00
2023-03-28T02:13:34.229Z,2.20
2023-03-28T02:16:02.019Z,1.00
2023-03-28T02:18:30.093Z,0.00
2023-03-28T02:20:57.918Z,0.20
2023-03-28T02:23:26.547Z,1.00
2023-03-28T02:25:54.130Z,1.00
2023-03-28T02:28:21.730Z,1.00
2023-03-28T02:30:49.323Z,1.00
2023-03-28T02:33:17.895Z,0.00
2023-03-28T02:35:45.910Z,1.80
2023-03-28T02:38:13.554Z,0.20
2023-03-28T02:40:41.136Z,1.00
2023-03-28T02:43:09.223Z,1.80
2023-03-28T02:45:37.020Z,1.00
2023-03-28T02:48:05.066Z,0.40
2023-03-28T02:50:32.691Z,0.00
2023-03-28T02:53:00.303Z,1.00
2023-03-28T02:55:28.322Z,1.00
2023-03-28T02:57:55.966Z,1.00
2023-03-28T03:00:23.584Z,1.60
2023-03-28T03:02:51.689Z,0.60
2023-03-28T03:05:20.816Z,1.00
2023-03-28T03:07:49.423Z,1.00
2023-03-28T03:10:17.173Z,0.60
2023-03-28T03:12:45.185Z,2.60
2023-03-28T03:15:12.739Z,1.00
2023-03-28T03:17:40.385Z,2.20
2023-03-28T03:20:08.786Z,1.00
2023-03-28T03:22:36.561Z,1.00
2023-03-28T03:25:07.111Z,0.00
2023-03-28T03:27:35.182Z,2.20
2023-03-28T03:30:02.751Z,1.00
2023-03-28T03:32:30.537Z,3.60
2023-03-28T03:34:58.730Z,2.60
2023-03-28T03:37:26.767Z,3.00
2023-03-28T03:39:54.365Z,1.80
2023-03-28T03:42:22.025Z,0.80
2023-03-28T03:44:49.615Z,1.00
2023-03-28T03:47:19.159Z,2.60
2023-03-28T03:49:47.168Z,1.80
2023-03-28T03:52:14.737Z,3.00
2023-03-28T03:54:42.292Z,3.00
2023-03-28T03:57:10.027Z,0.00
2023-03-28T03:59:37.684Z,0.20
2023-03-28T04:02:05.709Z,1.00
2023-03-28T04:04:33.420Z,3.40
2023-03-28T04:07:02.509Z,1.00
2023-03-28T04:09:31.003Z,3.20
2023-03-28T04:11:58.592Z,3.00
2023-03-28T04:14:26.531Z,3.00
2023-03-28T04:16:54.127Z,2.60
2023-03-28T04:19:24.415Z,0.00
2023-03-28T04:21:52.737Z,3.40
2023-03-28T04:24:21.176Z,3.00
2023-03-28T04:26:51.272Z,3.00
2023-03-28T04:29:18.939Z,3.00
2023-03-28T04:31:50.171Z,1.00
2023-03-28T04:34:20.203Z,3.00
2023-03-28T04:36:47.805Z,3.00
2023-03-28T04:39:15.821Z,3.00
2023-03-28T04:41:46.407Z,4.00
2023-03-28T04:44:14.078Z,1.00
2023-03-28T04:46:41.699Z,1.00
2023-03-28T04:49:09.488Z,4.00
2023-03-28T04:51:37.450Z,3.00
2023-03-28T04:54:05.578Z,1.00
2023-03-28T04:56:33.347Z,3.00
2023-03-28T04:59:01.069Z,3.60
2023-03-28T05:01:28.869Z,3.00
2023-03-28T05:03:56.956Z,4.00
2023-03-28T05:06:27.614Z,3.00
2023-03-28T05:08:55.225Z,0.00
2023-03-28T05:11:22.834Z,3.40
2023-03-28T05:13:50.492Z,0.00
2023-03-28T05:16:18.802Z,3.20
2023-03-28T05:18:47.260Z,0.60
2023-03-28T05:21:14.858Z,1.00
2023-03-28T05:23:42.527Z,3.00
2023-03-28T05:26:10.610Z,1.40
2023-03-28T05:28:38.564Z,3.00
2023-03-28T05:31:07.675Z,3.00
2023-03-28T05:33:35.336Z,3.60
2023-03-28T05:36:03.255Z,3.80
2023-03-28T05:38:33.814Z,3.00
2023-03-28T05:41:02.288Z,1.00
2023-03-28T05:43:30.177Z,1.80
2023-03-28T05:45:57.827Z,3.00
2023-03-28T05:48:25.556Z,4.00
2023-03-28T05:50:53.457Z,3.00
2023-03-28T05:53:21.929Z,1.00
2023-03-28T05:55:49.595Z,3.00
2023-03-28T05:58:17.660Z,3.20
2023-03-28T06:00:46.765Z,3.00
2023-03-28T06:03:17.853Z,4.00
2023-03-28T06:05:46.190Z,4.00
2023-03-28T06:08:13.818Z,3.60
2023-03-28T06:10:42.341Z,3.20
2023-03-28T06:13:10.026Z,3.20
2023-03-28T06:15:38.098Z,3.00
2023-03-28T06:18:06.195Z,2.20
2023-03-28T06:20:34.019Z,5.40
2023-03-28T06:23:03.749Z,4.40
2023-03-28T06:25:31.531Z,3.40
2023-03-28T06:27:59.666Z,1.00
2023-03-28T06:30:27.703Z,1.00
2023-03-28T06:32:55.723Z,3.00
2023-03-28T06:35:23.621Z,0.60
2023-03-28T06:37:51.295Z,4.00
2023-03-28T06:40:19.221Z,3.00
2023-03-28T06:42:47.570Z,2.20
2023-03-28T06:45:16.115Z,3.20
2023-03-28T06:47:43.990Z,2.60
2023-03-28T06:50:11.724Z,0.20
2023-03-28T06:52:39.795Z,2.60
2023-03-28T06:55:08.328Z,3.00
2023-03-28T06:57:36.070Z,3.00
2023-03-28T07:00:04.090Z,2.20
2023-03-28T07:02:31.966Z,1.00
2023-03-28T07:04:59.908Z,1.00
2023-03-28T07:07:28.686Z,3.80
2023-03-28T07:09:56.737Z,3.80
2023-03-28T07:12:24.388Z,1.00
2023-03-28T07:14:52.118Z,3.00
2023-03-28T07:17:20.242Z,2.60
2023-03-28T07:19:51.602Z,3.00
2023-03-28T07:22:19.185Z,1.00
2023-03-28T07:24:46.972Z,1.00
2023-03-28T07:27:16.259Z,3.00
2023-03-28T07:29:45.741Z,2.60
2023-03-28T07:32:14.099Z,3.00
2023-03-28T07:34:42.035Z,3.00
2023-03-28T07:37:09.703Z,1.80
2023-03-28T07:39:40.155Z,3.00
2023-03-28T07:42:08.566Z,2.20
2023-03-28T07:44:36.821Z,1.00
2023-03-28T07:47:04.658Z,1.00
2023-03-28T07:49:32.358Z,3.00
2023-03-28T07:51:59.993Z,2.60
2023-03-28T07:54:28.620Z,1.00
2023-03-28T07:56:57.112Z,2.60
2023-03-28T07:59:24.773Z,1.00
2023-03-28T08:01:52.674Z,3.00
2023-03-28T08:04:20.862Z,1.00
2023-03-28T08:06:49.089Z,1.80
2023-03-28T08:09:17.366Z,2.20
2023-03-28T08:11:45.239Z,1.80
2023-03-28T08:14:13.254Z,1.00
2023-03-28T08:16:41.269Z,3.00
2023-03-28T08:19:11.772Z,0.80
2023-03-28T08:21:39.859Z,1.00
2023-03-28T08:24:08.055Z,2.60
2023-03-28T08:26:36.877Z,1.00
2023-03-28T08:29:05.179Z,0.00
2023-03-28T08:31:33.077Z,1.00
2023-03-28T08:34:01.362Z,0.00
2023-03-28T08:36:29.441Z,1.00
2023-03-28T08:39:00.914Z,0.00
2023-03-28T08:41:28.809Z,0.00
2023-03-28T08:43:56.503Z,0.60
2023-03-28T08:46:25.120Z,1.00
2023-03-28T08:48:52.898Z,0.80
2023-03-28T08:51:20.855Z,1.00
2023-03-28T08:53:48.789Z,1.40
2023-03-28T08:56:16.656Z,0.00
2023-03-28T08:58:47.819Z,0.00
2023-03-28T09:01:16.781Z,0.00
2023-03-28T09:03:44.799Z,0.00
2023-03-28T09:06:12.841Z,0.00
2023-03-28T09:08:40.923Z,1.00
2023-03-28T09:11:09.448Z,0.00
2023-03-28T09:13:37.307Z,0.00
2023-03-28T09:16:07.413Z,0.00
2023-03-28T09:18:37.139Z,1.00
2023-03-28T09:21:05.367Z,1.50
2023-03-28T09:23:33.834Z,1.00
2023-03-28T09:26:02.007Z,0.00
2023-03-28T09:28:29.801Z,0.00
2023-03-28T09:30:57.880Z,0.75
2023-03-28T09:33:25.710Z,0.00
2023-03-28T09:35:53.810Z,0.00
2023-03-28T09:38:21.762Z,0.00
2023-03-28T09:40:49.874Z,0.00
2023-03-28T09:43:17.993Z,0.50
2023-03-28T09:45:45.776Z,0.00
2023-03-28T09:48:14.388Z,0.00
2023-03-28T09:50:42.782Z,0.00
2023-03-28T09:53:10.687Z,0.00
2023-03-28T09:55:38.659Z,0.00
2023-03-28T09:58:06.775Z,0.00
2023-03-28T10:00:35.150Z,0.00
2023-03-28T10:03:03.563Z,0.00
2023-03-28T10:05:31.953Z,0.00
2023-03-28T10:07:59.810Z,0.00
2023-03-28T10:10:28.941Z,0.00
2023-03-28T10:12:57.213Z,0.00
2023-03-28T10:15:25.138Z,0.00
2023-03-28T10:17:53.223Z,0.00
2023-03-28T10:20:21.760Z,0.00
2023-03-28T10:22:50.289Z,0.00
2023-03-28T10:25:18.539Z,0.00
2023-03-28T10:27:46.544Z,0.00
2023-03-28T10:30:14.624Z,0.00
2023-03-28T10:32:42.493Z,0.00
2023-03-28T10:35:11.071Z,0.00
2023-03-28T10:37:39.705Z,0.00
2023-03-28T10:40:07.997Z,0.00
2023-03-28T10:42:35.878Z,0.00
2023-03-28T10:45:04.365Z,0.50
2023-03-28T10:47:33.184Z,1.00
2023-03-28T10:50:01.142Z,0.00
2023-03-28T10:52:29.073Z,0.00
2023-03-28T10:54:57.052Z,0.75
2023-03-28T10:57:25.019Z,0.00
2023-03-28T10:59:53.373Z,0.00
2023-03-28T11:02:21.834Z,0.00
2023-03-28T11:04:49.635Z,0.00
2023-03-28T11:07:18.031Z,0.00
2023-03-28T11:09:46.133Z,0.00
2023-03-28T11:12:22.914Z,0.00
2023-03-28T11:14:56.768Z,0.00
2023-03-28T11:17:24.661Z,0.00
2023-03-28T11:19:52.717Z,1.00
2023-03-28T11:22:21.141Z,0.00
2023-03-28T11:24:48.961Z,0.00
2023-03-28T11:27:17.478Z,1.00
2023-03-28T11:29:46.540Z,0.00
2023-03-28T11:32:14.353Z,0.50
2023-03-28T11:34:43.266Z,0.00
2023-03-28T11:37:11.493Z,0.25
2023-03-28T11:39:41.258Z,0.75
2023-03-28T11:42:09.073Z,0.00
2023-03-28T11:44:37.057Z,0.00
2023-03-28T11:47:05.077Z,0.00
2023-03-28T11:49:33.068Z,1.00
2023-03-28T11:52:01.539Z,0.00
2023-03-28T11:54:29.409Z,0.00
2023-03-28T11:56:57.480Z,1.00
2023-03-28T11:59:25.729Z,1.00
2023-03-28T12:01:53.678Z,0.50
2023-03-28T12:04:22.275Z,0.00
2023-03-28T12:07:02.269Z,0.25
2023-03-28T12:09:32.170Z,0.00
2023-03-28T12:12:00.175Z,1.00
2023-03-28T12:14:28.338Z,1.50
2023-03-28T12:16:57.012Z,0.00
2023-03-28T12:19:25.273Z,1.00
2023-03-28T12:21:54.573Z,1.50
2023-03-28T12:24:23.420Z,1.00
2023-03-28T12:26:53.076Z,1.00
2023-03-28T12:29:23.033Z,2.00
2023-03-28T12:31:51.288Z,1.00
2023-03-28T12:34:19.401Z,0.25
2023-03-28T12:36:49.397Z,1.00
2023-03-28T12:39:18.340Z,1.00
2023-03-28T12:41:46.260Z,1.00
2023-03-28T12:44:14.220Z,0.75
2023-03-28T12:46:46.671Z,0.00
2023-03-28T12:49:14.610Z,0.00
2023-03-28T12:51:42.827Z,0.00
2023-03-28T12:54:11.188Z,0.00
2023-03-28T12:56:39.169Z,1.00
2023-03-28T12:59:07.395Z,0.00
2023-03-28T13:01:35.330Z,1.00
2023-03-28T13:04:03.804Z,1.00
2023-03-28T13:06:33.056Z,0.00
2023-03-28T13:09:00.961Z,1.00
2023-03-28T13:11:29.352Z,0.00
2023-03-28T13:13:59.056Z,0.00
2023-03-28T13:16:28.070Z,0.00
2023-03-28T13:18:56.037Z,0.00
2023-03-28T13:21:23.877Z,0.50
2023-03-28T13:23:52.590Z,1.00
2023-03-28T13:26:22.784Z,1.00
2023-03-28T13:28:52.548Z,0.00
2023-03-28T13:31:20.744Z,0.00
2023-03-28T13:33:48.627Z,0.25
2023-03-28T13:36:16.607Z,0.00
2023-03-28T13:38:44.740Z,0.00
2023-03-28T13:41:13.508Z,0.00
2023-03-28T13:43:43.571Z,0.00
2023-03-28T13:46:11.936Z,0.00
2023-03-28T13:48:40.056Z,0.00
2023-03-28T13:51:08.345Z,0.00
2023-03-28T13:53:46.963Z,0.00
2023-03-28T13:56:16.683Z,0.00
2023-03-28T13:58:44.593Z,0.00
2023-03-28T14:01:12.679Z,0.00
2023-03-28T14:03:42.753Z,0.00
2023-03-28T14:06:11.453Z,0.00
2023-03-28T14:08:39.310Z,0.00
2023-03-28T14:11:07.264Z,0.00
2023-03-28T14:13:35.136Z,0.00
2023-03-28T14:16:03.719Z,0.00
2023-03-28T14:18:32.182Z,0.00
2023-03-28T14:21:00.664Z,0.75
2023-03-28T14:23:29.161Z,0.00
2023-03-28T14:25:57.167Z,0.00
2023-03-28T14:28:25.290Z,0.00
2023-03-28T14:30:53.280Z,0.00
2023-03-28T14:33:21.423Z,0.00
2023-03-28T14:35:49.612Z,0.00
2023-03-28T14:38:17.700Z,0.00
2023-03-28T14:40:45.972Z,0.00
2023-03-28T14:43:14.284Z,0.00
2023-03-28T14:45:42.754Z,0.00
2023-03-28T14:48:11.446Z,0.00
2023-03-28T14:50:39.362Z,0.00
2023-03-28T14:53:07.613Z,0.00
2023-03-28T14:55:37.310Z,0.00
2023-03-28T14:58:05.071Z,0.00
2023-03-28T15:00:33.623Z,0.00
2023-03-28T15:03:01.896Z,0.00
2023-03-28T15:05:30.610Z,0.00
2023-03-28T15:07:58.610Z,0.00
2023-03-28T15:10:26.608Z,0.00
2023-03-28T15:12:54.871Z,0.00
2023-03-28T15:15:23.007Z,0.00
2023-03-28T15:17:51.675Z,0.00
2023-03-28T15:20:19.673Z,0.00
2023-03-28T15:22:47.586Z,0.00
2023-03-28T15:25:15.810Z,0.00
2023-03-28T15:27:44.123Z,0.00
2023-03-28T15:30:12.608Z,0.00
2023-03-28T15:32:40.971Z,0.00
2023-03-28T15:35:11.442Z,0.00
2023-03-28T15:37:40.543Z,0.00
2023-03-28T15:40:09.687Z,0.75
2023-03-28T15:42:37.673Z,0.00
2023-03-28T15:45:05.579Z,0.00
2023-03-28T15:47:33.822Z,0.00
2023-03-28T15:50:03.726Z,0.50
2023-03-28T15:52:31.699Z,0.00
2023-03-28T15:55:00.120Z,1.00
2023-03-28T15:57:28.475Z,0.00
2023-03-28T15:59:56.519Z,0.00
2023-03-28T16:02:24.531Z,0.75
2023-03-28T16:04:52.364Z,0.00
2023-03-28T16:07:20.623Z,0.50
2023-03-28T16:09:51.551Z,0.00
2023-03-28T16:12:19.476Z,0.00
2023-03-28T16:14:47.475Z,0.50
2023-03-28T16:17:15.517Z,0.00
2023-03-28T16:19:46.056Z,0.00
2023-03-28T16:22:14.221Z,0.00
2023-03-28T16:24:42.248Z,0.00
2023-03-28T16:27:10.161Z,0.00
2023-03-28T16:29:38.132Z,0.00
2023-03-28T16:32:07.387Z,0.00
2023-03-28T16:34:35.366Z,0.00
2023-03-28T16:37:03.210Z,0.00
2023-03-28T16:39:31.236Z,0.00
2023-03-28T16:41:59.081Z,0.00
2023-03-28T16:44:27.463Z,0.50
2023-03-28T16:46:55.509Z,0.50
2023-03-28T16:49:23.319Z,1.00
2023-03-28T16:51:51.933Z,0.00
2023-03-28T16:54:20.272Z,0.00
2023-03-28T16:56:49.108Z,1.00
2023-03-28T16:59:17.061Z,0.75
2023-03-28T17:01:46.609Z,0.00
2023-03-28T17:04:14.513Z,1.50
2023-03-28T17:06:42.370Z,2.50
2023-03-28T17:09:10.795Z,1.00
2023-03-28T17:11:40.576Z,1.00
2023-03-28T17:14:08.636Z,0.00
2023-03-28T17:16:40.669Z,0.00
2023-03-28T17:19:08.669Z,0.00
2023-03-28T17:21:37.723Z,0.00
2023-03-28T17:24:11.559Z,0.50
2023-03-28T17:26:39.469Z,0.00
2023-03-28T17:29:07.892Z,0.00
2023-03-28T17:31:36.105Z,0.00
2023-03-28T17:34:04.923Z,0.00
2023-03-28T17:36:32.921Z,0.25
2023-03-28T17:39:02.193Z,0.00
2023-03-28T17:41:30.025Z,0.00
2023-03-28T17:43:58.223Z,0.00
2023-03-28T17:46:27.403Z,0.00
2023-03-28T17:48:55.395Z,0.00
2023-03-28T17:51:23.448Z,1.00
2023-03-28T17:53:51.648Z,0.00
2023-03-28T17:56:19.800Z,0.00
2023-03-28T17:58:48.210Z,0.00
2023-03-28T18:01:16.379Z,0.00
2023-03-28T18:03:44.575Z,0.00
2023-03-28T18:06:13.072Z,0.00
2023-03-28T18:08:41.130Z,1.00
2023-03-28T18:11:09.532Z,0.50
2023-03-28T18:13:37.468Z,0.00
2023-03-28T18:16:06.451Z,0.00
2023-03-28T18:18:34.423Z,1.00
2023-03-28T18:21:02.335Z,0.00
2023-03-28T18:23:30.797Z,1.00
2023-03-28T18:25:58.827Z,0.00
2023-03-28T18:28:27.029Z,0.00
2023-03-28T18:30:55.128Z,0.00
2023-03-28T18:33:23.140Z,0.00
2023-03-28T18:35:51.862Z,0.00
2023-03-28T18:38:19.862Z,0.00
2023-03-28T18:40:47.881Z,0.00
2023-03-28T18:43:16.042Z,0.00
2023-03-28T18:45:44.138Z,0.00
2023-03-28T18:48:13.377Z,0.00
2023-03-28T18:50:42.416Z,0.00
2023-03-28T18:53:10.538Z,0.00
2023-03-28T18:55:38.418Z,0.00
2023-03-28T18:58:08.398Z,0.00
2023-03-28T19:00:36.784Z,0.00
2023-03-28T19:03:04.820Z,0.00
2023-03-28T19:05:34.409Z,1.00
2023-03-28T19:08:02.321Z,0.00
2023-03-28T19:10:30.217Z,0.00
2023-03-28T19:12:58.395Z,0.00
2023-03-28T19:15:26.524Z,0.00
2023-03-28T19:17:54.472Z,0.00
2023-03-28T19:20:22.380Z,0.25
2023-03-28T19:22:50.362Z,1.00
2023-03-28T19:25:18.484Z,0.00
2023-03-28T19:27:49.786Z,0.00
2023-03-28T19:30:18.023Z,0.00
2023-03-28T19:32:46.116Z,0.50
2023-03-28T19:35:14.013Z,0.40
2023-03-28T19:37:42.335Z,0.00
2023-03-28T19:40:10.584Z,0.00
2023-03-28T19:42:38.572Z,0.80
2023-03-28T19:45:06.451Z,1.00
2023-03-28T19:47:34.326Z,0.80
2023-03-28T19:50:04.502Z,0.00
2023-03-28T19:52:32.377Z,1.00
2023-03-28T19:55:00.538Z,0.00
2023-03-28T19:57:28.765Z,1.00
2023-03-28T19:59:56.921Z,1.00
2023-03-28T20:02:24.775Z,1.00
2023-03-28T20:04:52.994Z,1.00
2023-03-28T20:07:21.655Z,0.25
2023-03-28T20:09:50.182Z,1.00
2023-03-28T20:12:18.102Z,0.75
2023-03-28T20:14:46.400Z,0.80
2023-03-28T20:17:14.193Z,0.80
2023-03-28T20:19:42.700Z,1.00
2023-03-28T20:22:10.565Z,1.80
2023-03-28T20:24:38.858Z,0.00
2023-03-28T20:27:07.565Z,1.00
2023-03-28T20:29:35.434Z,0.60
2023-03-28T20:32:05.149Z,1.00
2023-03-28T20:34:33.930Z,1.00
2023-03-28T20:37:03.683Z,1.00
2023-03-28T20:39:35.342Z,1.00
2023-03-28T20:42:05.920Z,1.00
2023-03-28T20:44:38.313Z,1.00
2023-03-28T20:47:06.417Z,0.20
2023-03-28T20:49:34.909Z,0.20
2023-03-28T20:52:02.880Z,1.80
2023-03-28T20:54:30.695Z,1.00
2023-03-28T20:56:59.352Z,0.40
2023-03-28T20:59:27.531Z,1.00
2023-03-28T21:01:56.572Z,0.60
2023-03-28T21:04:24.497Z,1.00
2023-03-28T21:06:52.481Z,0.00
2023-03-28T21:09:20.804Z,1.00
2023-03-28T21:11:49.900Z,1.00
2023-03-28T21:14:18.465Z,1.00
2023-03-28T21:16:47.610Z,1.00
2023-03-28T21:19:15.703Z,1.00
2023-03-28T21:21:43.863Z,1.00
2023-03-28T21:24:11.797Z,1.00
2023-03-28T21:26:40.105Z,1.00
2023-03-28T21:29:08.169Z,2.20
2023-03-28T21:31:37.341Z,1.80
2023-03-28T21:34:05.557Z,1.00
2023-03-28T21:36:33.623Z,1.00
2023-03-28T21:39:01.756Z,2.20
2023-03-28T21:41:29.786Z,0.60
2023-03-28T21:43:57.563Z,1.00
2023-03-28T21:46:25.495Z,1.00
2023-03-28T21:48:53.493Z,1.00
2023-03-28T21:51:21.700Z,1.00
2023-03-28T21:53:49.411Z,0.40
2023-03-28T21:56:17.132Z,0.00
2023-03-28T21:58:45.667Z,1.80
2023-03-28T22:01:13.756Z,1.00
2023-03-28T22:03:42.109Z,2.20
2023-03-28T22:06:09.878Z,1.00
2023-03-28T22:08:37.633Z,1.40
2023-03-28T22:11:05.864Z,0.00
2023-03-28T22:13:33.679Z,1.00
2023-03-28T22:16:01.731Z,0.80
2023-03-28T22:18:30.902Z,0.60
2023-03-28T22:21:02.869Z,0.40
2023-03-28T22:23:31.256Z,0.20
2023-03-28T22:25:59.011Z,1.00
2023-03-28T22:28:27.318Z,0.80
2023-03-28T22:30:55.090Z,0.00
2023-03-28T22:33:23.709Z,0.60
2023-03-28T22:35:51.945Z,1.00
2023-03-28T22:38:19.755Z,0.00
2023-03-28T22:40:47.778Z,0.00
2023-03-28T22:43:16.402Z,1.00
2023-03-28T22:45:44.208Z,0.60
2023-03-28T22:48:14.636Z,1.00
2023-03-28T22:50:44.216Z,0.00
2023-03-28T22:53:12.890Z,0.00
2023-03-28T22:55:40.605Z,0.60
2023-03-28T22:58:08.214Z,0.00
2023-03-28T23:00:36.399Z,1.00
2023-03-28T23:03:04.245Z,0.40
2023-03-28T23:05:32.854Z,0.00
2023-03-28T23:08:00.595Z,1.00
2023-03-28T23:10:28.364Z,1.00
2023-03-28T23:12:56.548Z,1.00
2023-03-28T23:15:24.174Z,3.00
2023-03-28T23:17:52.730Z,0.00
2023-03-28T23:20:20.444Z,0.60
2023-03-28T23:22:48.467Z,0.00
2023-03-28T23:25:16.191Z,1.00
2023-03-28T23:27:44.355Z,1.80
2023-03-28T23:30:12.322Z,1.00
2023-03-28T23:32:40.111Z,0.60
2023-03-28T23:35:07.797Z,0.80
2023-03-28T23:37:38.397Z,2.20
2023-03-28T23:40:10.676Z,1.00
2023-03-28T23:42:38.417Z,1.00
2023-03-28T23:45:06.118Z,1.00
2023-03-28T23:47:33.844Z,0.80
2023-03-28T23:50:01.562Z,0.00
2023-03-28T23:52:29.167Z,1.40
2023-03-28T23:54:57.222Z,0.40
2023-03-28T23:57:25.423Z,0.80
2023-03-28T23:59:53.090Z,1.00
